Time;durP1;ratioP1;P1;durP2;ratioP2;P2;SDS_P1;SDS_P2;PMS_P1;PMS_P2;Temp;Humidity;BMP_temperature;BMP_pressure;BME280_temperature;BME280_humidity;BME280_pressure;Samples;Min_cycle;Max_cycle;Signal;HPM_P1;HPM_P2
2022/10/10 03:56:03;;;;;;;;;;;21.60;94.50;;;;;;4996842;28;20013;-79
2022/10/10 03:58:29;;;;;;;;;;;21.80;94.60;;;;;;4999867;28;19961;-79
2022/10/10 04:00:57;;;;;;;;;;;21.80;94.70;;;;;;4999592;28;20017;-79
2022/10/10 04:03:23;;;;;;;;;;;21.80;94.80;;;;;;4999345;28;20361;-78
2022/10/10 04:05:50;;;;;;;;;;;21.80;94.70;;;;;;5000930;28;20020;-80
2022/10/10 04:08:18;;;;;;;;;;;21.80;94.70;;;;;;5001478;28;20385;-80
2022/10/10 04:10:47;;;;;;;;;;;21.80;94.70;;;;;;5002299;28;19976;-80
2022/10/10 04:13:15;;;;;;;;;;;21.80;94.70;;;;;;5001986;28;20361;-80
2022/10/10 04:15:42;;;;;;;;;;;21.80;94.70;;;;;;5002429;28;19984;-80
2022/10/10 04:18:08;;;;;;;;;;;21.80;94.80;;;;;;5004798;28;19979;-80
2022/10/10 04:20:35;;;;;;;;;;;21.80;94.80;;;;;;5002254;28;20370;-79
2022/10/10 04:23:02;;;;;;;;;;;21.80;94.80;;;;;;4996313;28;19984;-78
2022/10/10 04:25:28;;;;;;;;;;;21.80;94.80;;;;;;4995992;28;20013;-77
2022/10/10 04:27:55;;;;;;;;;;;21.80;94.80;;;;;;4996033;28;20008;-78
2022/10/10 04:30:23;;;;;;;;;;;21.70;94.70;;;;;;4997103;28;20440;-78
2022/10/10 04:32:50;;;;;;;;;;;21.70;94.70;;;;;;4996406;28;19981;-78
2022/10/10 04:35:16;;;;;;;;;;;21.70;94.70;;;;;;4996057;28;20433;-78
2022/10/10 04:37:44;;;;;;;;;;;21.70;94.70;;;;;;4996625;28;19968;-79
2022/10/10 04:40:11;;;;;;;;;;;21.70;94.70;;;;;;4995980;28;19926;-78
2022/10/10 04:42:37;;;;;;;;;;;21.80;94.80;;;;;;4996155;28;19973;-79
2022/10/10 04:45:05;;;;;;;;;;;21.80;94.90;;;;;;4996079;28;20421;-79
2022/10/10 04:47:33;;;;;;;;;;;21.70;94.90;;;;;;4996049;28;19926;-78
2022/10/10 04:50:00;;;;;;;;;;;21.80;95.00;;;;;;4996479;28;20017;-80
2022/10/10 04:52:27;;;;;;;;;;;21.80;95.10;;;;;;4996880;28;19981;-83
2022/10/10 04:54:53;;;;;;;;;;;21.90;95.10;;;;;;4997022;28;20013;-81
2022/10/10 04:57:20;;;;;;;;;;;21.80;95.10;;;;;;4996218;28;19965;-78
2022/10/10 04:59:47;;;;;;;;;;;21.90;95.20;;;;;;4996617;28;20033;-79
2022/10/10 05:02:14;;;;;;;;;;;21.90;95.30;;;;;;4996391;28;20020;-80
2022/10/10 05:04:42;;;;;;;;;;;21.90;95.30;;;;;;4996787;28;20021;-80
2022/10/10 05:07:08;;;;;;;;;;;21.90;95.30;;;;;;4996548;28;20020;-80
2022/10/10 05:09:35;;;;;;;;;;;21.90;95.30;;;;;;4997040;28;19979;-78
2022/10/10 05:12:02;;;;;;;;;;;21.90;95.30;;;;;;4995959;28;19992;-78
2022/10/10 05:14:28;;;;;;;;;;;21.90;95.30;;;;;;4996220;28;19968;-78
2022/10/10 05:16:55;;;;;;;;;;;21.90;95.20;;;;;;4995262;28;20013;-78
2022/10/10 05:19:22;;;;;;;;;;;21.90;95.20;;;;;;4995123;28;19926;-78
2022/10/10 05:21:50;;;;;;;;;;;21.90;95.20;;;;;;4994937;28;20013;-78
2022/10/10 05:24:16;;;;;;;;;;;21.90;95.10;;;;;;4994623;28;20013;-77
2022/10/10 05:26:43;;;;;;;;;;;21.90;95.10;;;;;;4995063;28;20359;-77
2022/10/10 05:29:10;;;;;;;;;;;21.90;95.00;;;;;;4994945;28;20024;-77
2022/10/10 05:31:36;;;;;;;;;;;21.90;95.00;;;;;;4994817;28;20020;-77
2022/10/10 05:34:03;;;;;;;;;;;21.80;94.90;;;;;;4994825;28;20020;-77
2022/10/10 05:36:30;;;;;;;;;;;21.90;94.90;;;;;;4994799;28;20021;-77
2022/10/10 05:38:58;;;;;;;;;;;21.90;94.80;;;;;;4994763;28;20016;-77
2022/10/10 05:41:25;;;;;;;;;;;21.90;94.80;;;;;;4994469;28;19953;-77
2022/10/10 05:43:51;;;;;;;;;;;21.80;94.60;;;;;;4994392;28;20357;-77
2022/10/10 05:46:19;;;;;;;;;;;21.90;94.60;;;;;;4994779;28;19988;-77
2022/10/10 05:48:45;;;;;;;;;;;21.90;94.70;;;;;;4994690;28;19926;-77
2022/10/10 05:51:12;;;;;;;;;;;21.90;94.50;;;;;;4994700;28;19932;-77
2022/10/10 05:53:39;;;;;;;;;;;21.90;94.40;;;;;;4994489;28;19926;-77
2022/10/10 05:56:07;;;;;;;;;;;21.80;94.30;;;;;;4994255;28;20008;-77
2022/10/10 05:58:33;;;;;;;;;;;21.80;94.20;;;;;;4994639;28;20016;-77
2022/10/10 06:01:02;;;;;;;;;;;21.80;94.20;;;;;;4994606;28;20016;-77
2022/10/10 06:03:29;;;;;;;;;;;21.80;94.10;;;;;;4994155;28;20012;-77
2022/10/10 06:05:56;;;;;;;;;;;21.80;94.00;;;;;;4994219;28;20372;-77
2022/10/10 06:08:24;;;;;;;;;;;21.80;93.90;;;;;;4994749;28;20029;-77
2022/10/10 06:10:51;;;;;;;;;;;21.80;93.90;;;;;;4998452;28;19926;-77
2022/10/10 06:13:19;;;;;;;;;;;21.80;93.70;;;;;;4998076;28;20399;-77
2022/10/10 06:15:46;;;;;;;;;;;21.80;94.00;;;;;;4998407;28;20016;-77
2022/10/10 06:18:13;;;;;;;;;;;21.80;93.70;;;;;;4998103;28;20029;-77
2022/10/10 06:20:40;;;;;;;;;;;21.80;93.70;;;;;;4998110;28;20008;-77
2022/10/10 06:23:07;;;;;;;;;;;21.80;93.70;;;;;;4998199;28;20037;-77
2022/10/10 06:25:35;;;;;;;;;;;21.80;93.70;;;;;;4998120;28;20163;-77
2022/10/10 06:28:01;;;;;;;;;;;21.80;93.60;;;;;;4998145;28;20020;-77
2022/10/10 06:30:30;;;;;;;;;;;21.70;93.40;;;;;;4997765;28;20021;-77
2022/10/10 06:32:57;;;;;;;;;;;21.80;93.40;;;;;;4998024;28;20024;-77
2022/10/10 06:35:24;;;;;;;;;;;21.80;93.40;;;;;;4997931;28;19967;-77
2022/10/10 06:37:51;;;;;;;;;;;21.80;93.30;;;;;;4997980;28;20029;-77
2022/10/10 06:40:17;;;;;;;;;;;21.80;93.30;;;;;;4997871;28;20009;-77
2022/10/10 06:42:44;;;;;;;;;;;21.80;93.20;;;;;;4997839;28;20012;-77
2022/10/10 06:45:11;;;;;;;;;;;21.80;93.20;;;;;;4997776;28;20033;-77
2022/10/10 06:47:40;;;;;;;;;;;21.70;93.00;;;;;;4997749;28;19926;-77
2022/10/10 06:50:07;;;;;;;;;;;21.80;93.00;;;;;;4997722;28;19980;-77
2022/10/10 06:52:34;;;;;;;;;;;21.70;92.90;;;;;;4997582;28;20020;-77
2022/10/10 06:55:01;;;;;;;;;;;21.70;92.90;;;;;;4997190;28;20020;-77
2022/10/10 06:57:28;;;;;;;;;;;21.80;92.90;;;;;;4997601;28;20020;-77
2022/10/10 06:59:54;;;;;;;;;;;21.80;92.80;;;;;;4997176;28;20448;-77
2022/10/10 07:02:22;;;;;;;;;;;21.70;92.70;;;;;;4997137;28;20347;-77
2022/10/10 07:04:50;;;;;;;;;;;21.70;93.00;;;;;;4997363;28;20012;-77
2022/10/10 07:07:16;;;;;;;;;;;21.70;92.60;;;;;;4997329;28;19932;-77
2022/10/10 07:09:43;;;;;;;;;;;21.70;92.50;;;;;;4997119;28;20013;-77
2022/10/10 07:12:10;;;;;;;;;;;21.70;92.50;;;;;;4996960;28;20378;-77
2022/10/10 07:14:36;;;;;;;;;;;21.70;92.40;;;;;;4997819;28;19961;-77
2022/10/10 07:17:03;;;;;;;;;;;21.70;92.40;;;;;;4997252;28;20016;-77
2022/10/10 07:19:30;;;;;;;;;;;21.70;92.30;;;;;;4997225;28;20016;-77
2022/10/10 07:21:58;;;;;;;;;;;21.70;92.30;;;;;;4995864;28;20008;-77
2022/10/10 07:24:24;;;;;;;;;;;21.70;92.20;;;;;;4996701;28;19926;-77
2022/10/10 07:26:53;;;;;;;;;;;21.70;92.20;;;;;;4997053;28;20017;-77
2022/10/10 07:29:20;;;;;;;;;;;21.70;92.10;;;;;;4996657;28;19929;-77
2022/10/10 07:31:47;;;;;;;;;;;21.70;92.10;;;;;;4996900;28;19925;-77
2022/10/10 07:34:13;;;;;;;;;;;21.70;92.00;;;;;;4996840;28;20016;-77
2022/10/10 07:36:40;;;;;;;;;;;21.70;92.00;;;;;;4996812;28;20029;-77
2022/10/10 07:39:08;;;;;;;;;;;21.70;91.90;;;;;;4996820;28;19933;-77
2022/10/10 07:41:35;;;;;;;;;;;21.70;91.90;;;;;;4996799;28;20016;-77
2022/10/10 07:44:02;;;;;;;;;;;21.70;91.80;;;;;;4996640;28;20020;-77
2022/10/10 07:46:30;;;;;;;;;;;21.70;91.80;;;;;;4996409;28;19952;-77
2022/10/10 07:48:57;;;;;;;;;;;21.70;91.70;;;;;;4996687;28;19988;-77
2022/10/10 07:51:23;;;;;;;;;;;21.70;92.00;;;;;;4996598;28;19973;-77
2022/10/10 07:53:51;;;;;;;;;;;21.70;91.70;;;;;;4996388;28;19926;-77
2022/10/10 07:56:19;;;;;;;;;;;21.70;91.60;;;;;;4996169;28;20029;-77
2022/10/10 07:58:46;;;;;;;;;;;21.70;91.60;;;;;;4996179;28;20372;-77
2022/10/10 08:01:13;;;;;;;;;;;21.70;91.50;;;;;;4996366;28;20008;-77
2022/10/10 08:03:40;;;;;;;;;;;21.70;91.50;;;;;;4995995;28;20433;-77
2022/10/10 08:06:08;;;;;;;;;;;21.70;91.40;;;;;;4996386;28;20016;-77
2022/10/10 08:08:34;;;;;;;;;;;21.70;91.40;;;;;;4996253;28;20016;-77
2022/10/10 08:11:03;;;;;;;;;;;21.70;91.30;;;;;;4996179;28;19925;-77
2022/10/10 08:13:31;;;;;;;;;;;21.70;91.20;;;;;;4995675;28;20381;-77
2022/10/10 08:15:58;;;;;;;;;;;21.70;91.20;;;;;;4995834;28;20021;-77
2022/10/10 08:18:24;;;;;;;;;;;21.70;91.20;;;;;;4995798;28;19926;-77
2022/10/10 08:20:58;;;;;;;;;;;21.70;91.20;;;;;;4996021;28;20016;-77
2022/10/10 08:23:25;;;;;;;;;;;21.60;91.10;;;;;;4995625;28;20017;-77
2022/10/10 08:25:51;;;;;;;;;;;21.70;91.20;;;;;;4995625;28;19926;-77
2022/10/10 08:28:18;;;;;;;;;;;21.70;91.20;;;;;;4995858;28;19932;-78
2022/10/10 08:30:46;;;;;;;;;;;21.70;91.20;;;;;;4995492;28;20016;-78
2022/10/10 08:33:13;;;;;;;;;;;21.70;91.20;;;;;;4995539;28;20012;-77
2022/10/10 08:35:39;;;;;;;;;;;21.60;91.10;;;;;;4995403;28;20016;-77
2022/10/10 08:38:07;;;;;;;;;;;21.70;91.00;;;;;;4995663;28;19972;-77
2022/10/10 08:40:34;;;;;;;;;;;21.70;91.00;;;;;;4995584;28;19926;-77
2022/10/10 08:43:03;;;;;;;;;;;21.70;90.90;;;;;;4995341;28;20020;-77
2022/10/10 08:45:33;;;;;;;;;;;21.70;90.90;;;;;;4995468;28;19932;-77
2022/10/10 08:48:02;;;;;;;;;;;21.70;90.90;;;;;;4995178;28;19964;-77
2022/10/10 08:50:30;;;;;;;;;;;21.70;90.80;;;;;;4995452;28;19972;-78
2022/10/10 08:52:58;;;;;;;;;;;21.70;90.80;;;;;;4995292;28;20020;-78
2022/10/10 08:55:29;;;;;;;;;;;21.70;90.70;;;;;;4994886;28;20476;-78
2022/10/10 08:57:58;;;;;;;;;;;21.70;90.70;;;;;;4995443;28;20293;-78
2022/10/10 09:00:28;;;;;;;;;;;21.70;90.70;;;;;;4995258;28;20008;-78
2022/10/10 09:02:56;;;;;;;;;;;21.70;90.60;;;;;;4995228;28;19972;-74
2022/10/10 09:05:30;;;;;;;;;;;21.70;90.60;;;;;;4995106;28;19974;-77
2022/10/10 09:08:03;;;;;;;;;;;21.70;90.60;;;;;;4994858;28;19980;-74
2022/10/10 09:10:33;;;;;;;;;;;21.70;90.50;;;;;;4995111;28;20040;-77
2022/10/10 09:13:04;;;;;;;;;;;21.60;90.50;;;;;;4994953;28;20021;-74
2022/10/10 09:15:33;;;;;;;;;;;21.60;90.40;;;;;;4995008;28;19969;-77
2022/10/10 09:18:06;;;;;;;;;;;21.60;90.40;;;;;;4994984;28;20021;-74
2022/10/10 09:20:42;;;;;;;;;;;21.60;90.30;;;;;;4994987;28;20000;-74
2022/10/10 09:23:13;;;;;;;;;;;21.60;90.30;;;;;;4994894;28;20020;-74
2022/10/10 09:25:44;;;;;;;;;;;21.60;90.30;;;;;;4994907;28;19932;-77
2022/10/10 09:28:14;;;;;;;;;;;21.60;90.30;;;;;;4994826;28;19932;-77
2022/10/10 09:30:43;;;;;;;;;;;21.60;90.20;;;;;;4995031;28;20009;-77
2022/10/10 09:33:17;;;;;;;;;;;21.60;90.20;;;;;;4994469;28;20017;-77
2022/10/10 09:35:46;;;;;;;;;;;21.70;90.20;;;;;;4994878;28;19929;-74
2022/10/10 09:38:20;;;;;;;;;;;21.70;90.20;;;;;;4994735;28;20017;-74
2022/10/10 09:40:48;;;;;;;;;;;21.70;90.20;;;;;;4994764;28;19926;-74
2022/10/10 09:43:17;;;;;;;;;;;21.70;90.20;;;;;;4994092;28;19965;-75
2022/10/10 09:45:46;;;;;;;;;;;21.70;90.10;;;;;;4994653;28;19980;-74
2022/10/10 09:48:12;;;;;;;;;;;21.70;90.10;;;;;;4994327;28;19965;-74
2022/10/10 09:50:39;;;;;;;;;;;21.70;90.10;;;;;;4994662;28;19933;-74
2022/10/10 09:53:09;;;;;;;;;;;21.70;90.10;;;;;;4994425;28;19936;-77
2022/10/10 09:55:38;;;;;;;;;;;21.70;90.10;;;;;;4994345;28;20016;-75
2022/10/10 09:58:12;;;;;;;;;;;21.70;90.00;;;;;;4994559;28;20008;-74
2022/10/10 10:00:38;;;;;;;;;;;21.70;90.00;;;;;;4995830;28;20001;-78
2022/10/10 10:03:09;;;;;;;;;;;21.70;90.00;;;;;;4996430;28;19972;-78
2022/10/10 10:05:36;;;;;;;;;;;21.70;90.00;;;;;;4995663;28;19976;-78
2022/10/10 10:08:03;;;;;;;;;;;21.70;90.00;;;;;;4994481;28;19933;-78
2022/10/10 10:10:33;;;;;;;;;;;21.70;90.00;;;;;;4994800;28;20016;-77
2022/10/10 10:13:00;;;;;;;;;;;21.70;90.00;;;;;;4995233;28;20016;-78
2022/10/10 10:15:28;;;;;;;;;;;21.70;89.90;;;;;;4994762;28;20009;-77
2022/10/10 10:18:11;;;;;;;;;;;21.70;90.10;;;;;;4995118;28;19950;-77
2022/10/10 10:20:39;;;;;;;;;;;21.70;89.80;;;;;;4996039;28;20341;-78
2022/10/10 10:23:21;;;;;;;;;;;21.70;89.80;;;;;;4995412;28;19969;-73
2022/10/10 10:25:56;;;;;;;;;;;21.70;89.90;;;;;;4995441;28;20020;-74
2022/10/10 10:28:22;;;;;;;;;;;21.70;90.00;;;;;;4995114;28;20012;-77
2022/10/10 10:30:52;;;;;;;;;;;21.70;90.00;;;;;;4995264;28;20342;-78
2022/10/10 10:33:25;;;;;;;;;;;21.70;90.00;;;;;;4995160;28;20024;-77
2022/10/10 10:35:57;;;;;;;;;;;21.70;90.00;;;;;;4995044;28;20020;-78
2022/10/10 10:38:29;;;;;;;;;;;21.70;90.00;;;;;;4995315;28;19980;-78
2022/10/10 10:41:00;;;;;;;;;;;21.80;90.00;;;;;;4995870;28;19965;-78
2022/10/10 10:43:37;;;;;;;;;;;21.70;90.00;;;;;;4995972;28;19973;-78
2022/10/10 10:46:09;;;;;;;;;;;21.80;90.00;;;;;;4996126;28;20017;-78
2022/10/10 10:48:40;;;;;;;;;;;21.70;90.00;;;;;;4995032;28;19930;-78
2022/10/10 10:51:14;;;;;;;;;;;21.80;90.00;;;;;;4995219;28;19988;-75
2022/10/10 10:53:44;;;;;;;;;;;21.80;90.00;;;;;;4993919;28;20013;-75
2022/10/10 10:56:18;;;;;;;;;;;21.80;90.00;;;;;;4994778;28;20364;-75
2022/10/10 10:58:54;;;;;;;;;;;21.70;90.00;;;;;;4997276;28;20006;-75
2022/10/10 11:01:23;;;;;;;;;;;21.80;90.00;;;;;;4997106;28;19926;-75
2022/10/10 11:03:56;;;;;;;;;;;21.80;90.00;;;;;;4996790;28;20012;-76
2022/10/10 11:06:29;;;;;;;;;;;21.80;90.00;;;;;;4997419;28;19926;-75
2022/10/10 11:08:59;;;;;;;;;;;21.80;90.00;;;;;;4997659;28;20364;-75
2022/10/10 11:11:32;;;;;;;;;;;21.80;90.00;;;;;;4998646;28;20013;-74
2022/10/10 11:14:02;;;;;;;;;;;21.80;90.00;;;;;;4997966;28;20013;-74
2022/10/10 11:16:30;;;;;;;;;;;21.80;90.00;;;;;;4998419;28;19979;-74
2022/10/10 11:19:04;;;;;;;;;;;21.80;90.00;;;;;;4998112;28;19937;-74
2022/10/10 11:21:33;;;;;;;;;;;21.80;90.00;;;;;;4998347;28;19926;-74
2022/10/10 11:24:02;;;;;;;;;;;21.80;90.10;;;;;;4998051;28;19932;-75
2022/10/10 11:26:31;;;;;;;;;;;21.80;90.10;;;;;;4999444;28;20017;-75
2022/10/10 11:29:00;;;;;;;;;;;21.80;90.10;;;;;;4997887;28;19930;-74
2022/10/10 11:31:30;;;;;;;;;;;21.80;90.20;;;;;;4998241;28;19984;-74
2022/10/10 11:33:59;;;;;;;;;;;21.80;90.20;;;;;;4997948;28;20016;-74
2022/10/10 11:36:27;;;;;;;;;;;21.90;90.30;;;;;;4997981;28;19957;-74
2022/10/10 11:38:56;;;;;;;;;;;21.90;90.30;;;;;;4997575;28;20012;-75
2022/10/10 11:41:25;;;;;;;;;;;21.90;90.40;;;;;;4997595;28;19926;-74
2022/10/10 11:43:54;;;;;;;;;;;21.90;90.40;;;;;;4996756;28;20382;-75
2022/10/10 11:46:26;;;;;;;;;;;21.90;90.50;;;;;;4996502;28;19980;-75
2022/10/10 11:48:56;;;;;;;;;;;21.90;90.70;;;;;;4996631;28;19972;-76
2022/10/10 11:51:26;;;;;;;;;;;21.90;90.90;;;;;;4996258;28;20334;-76
2022/10/10 11:53:55;;;;;;;;;;;22.00;91.30;;;;;;4996372;28;20012;-76
2022/10/10 11:56:26;;;;;;;;;;;22.00;91.30;;;;;;4996196;28;20348;-75
2022/10/10 11:58:57;;;;;;;;;;;22.00;91.30;;;;;;4996453;28;19926;-76
2022/10/10 12:01:27;;;;;;;;;;;22.00;91.70;;;;;;4996105;28;20370;-75
2022/10/10 12:03:56;;;;;;;;;;;22.10;91.90;;;;;;4995906;28;20004;-75
2022/10/10 12:06:26;;;;;;;;;;;22.10;92.10;;;;;;4995563;28;20301;-75
2022/10/10 12:08:57;;;;;;;;;;;22.10;92.20;;;;;;4996224;28;19926;-76
2022/10/10 12:11:28;;;;;;;;;;;22.10;92.40;;;;;;4995893;28;20025;-75
2022/10/10 12:13:57;;;;;;;;;;;22.10;92.50;;;;;;4995911;28;19926;-75
2022/10/10 12:16:26;;;;;;;;;;;22.10;92.60;;;;;;4995668;28;20016;-76
2022/10/10 12:18:54;;;;;;;;;;;22.10;92.80;;;;;;4995625;28;20008;-76
2022/10/10 12:21:22;;;;;;;;;;;22.10;92.90;;;;;;4995510;28;20021;-75
2022/10/10 12:23:57;;;;;;;;;;;22.10;93.40;;;;;;4995404;28;19926;-76
2022/10/10 12:26:25;;;;;;;;;;;22.10;93.20;;;;;;4995889;28;20009;-76
2022/10/10 12:28:59;;;;;;;;;;;22.10;93.30;;;;;;4995826;28;19926;-76
2022/10/10 12:31:30;;;;;;;;;;;22.10;93.40;;;;;;4998823;28;20016;-80
2022/10/10 12:34:12;;;;;;;;;;;22.10;93.60;;;;;;4998882;28;20333;-79
2022/10/10 12:36:43;;;;;;;;;;;22.10;93.80;;;;;;4995889;28;20381;-80
2022/10/10 12:39:28;;;;;;;;;;;22.10;93.90;;;;;;4998389;28;20441;-79
2022/10/10 12:41:55;;;;;;;;;;;22.10;93.90;;;;;;4999665;28;19993;-81
2022/10/10 12:44:25;;;;;;;;;;;22.10;93.90;;;;;;4999037;28;19926;-79
2022/10/10 12:47:06;;;;;;;;;;;22.10;93.90;;;;;;4999317;28;19976;-80
2022/10/10 12:49:34;;;;;;;;;;;22.10;93.90;;;;;;4999462;28;20351;-82
2022/10/10 12:52:11;;;;;;;;;;;22.10;93.90;;;;;;5000270;28;19932;-82
2022/10/10 12:54:38;;;;;;;;;;;22.10;94.00;;;;;;5000127;28;19926;-80
2022/10/10 12:57:08;;;;;;;;;;;22.10;94.10;;;;;;4999485;28;20004;-81
2022/10/10 13:35:51;;;;;;;;;;;22.00;94.40;;;;;;5661125;23;19933;-76
2022/10/10 13:38:23;;;;;;;;;;;22.10;94.60;;;;;;5013976;28;20019;-75
2022/10/10 13:40:49;;;;;;;;;;;22.00;94.50;;;;;;5014066;28;20020;-75
2022/10/10 13:43:17;;;;;;;;;;;22.00;94.50;;;;;;5014275;28;20008;-75
2022/10/10 13:45:45;;;;;;;;;;;22.10;94.60;;;;;;5014212;28;20025;-75
2022/10/10 13:48:16;;;;;;;;;;;22.10;94.60;;;;;;5013969;28;20448;-75
2022/10/10 13:51:00;;;;;;;;;;;22.00;94.60;;;;;;5014752;28;19926;-75
2022/10/10 13:53:32;;;;;;;;;;;22.10;94.60;;;;;;5013807;28;20395;-75
2022/10/10 13:56:01;;;;;;;;;;;22.00;94.70;;;;;;5013760;28;20020;-75
2022/10/10 13:58:28;;;;;;;;;;;22.10;94.80;;;;;;5014148;28;20316;-75
2022/10/10 14:00:55;;;;;;;;;;;22.10;94.90;;;;;;5014105;28;20019;-75
2022/10/10 14:03:22;;;;;;;;;;;22.10;94.90;;;;;;5013801;28;19926;-75
2022/10/10 14:05:49;;;;;;;;;;;22.00;95.00;;;;;;5014011;28;20284;-75
2022/10/10 14:08:18;;;;;;;;;;;22.00;95.00;;;;;;5013868;28;20009;-75
2022/10/10 14:10:54;;;;;;;;;;;22.00;95.10;;;;;;5014037;28;19965;-75
2022/10/10 14:13:21;;;;;;;;;;;22.10;95.20;;;;;;5014094;28;20020;-75
2022/10/10 14:15:48;;;;;;;;;;;22.10;95.20;;;;;;5013614;28;20355;-75
2022/10/10 14:18:16;;;;;;;;;;;22.10;95.30;;;;;;5014018;28;20013;-75
2022/10/10 14:20:43;;;;;;;;;;;22.10;95.40;;;;;;5013956;28;20016;-75
2022/10/10 14:23:09;;;;;;;;;;;22.00;95.40;;;;;;5013619;28;20468;-75
2022/10/10 14:25:38;;;;;;;;;;;22.00;95.50;;;;;;5013886;28;20016;-75
2022/10/10 14:28:05;;;;;;;;;;;22.10;95.60;;;;;;5013912;28;19933;-75
2022/10/10 14:30:32;;;;;;;;;;;22.10;95.70;;;;;;5015908;28;20016;-75
2022/10/10 14:32:59;;;;;;;;;;;22.00;95.70;;;;;;5017658;28;19925;-75
2022/10/10 14:35:25;;;;;;;;;;;22.10;95.80;;;;;;5018033;28;19926;-75
2022/10/10 14:37:52;;;;;;;;;;;22.10;95.90;;;;;;5017218;28;20347;-75
2022/10/10 14:40:20;;;;;;;;;;;22.10;96.00;;;;;;5017665;28;20016;-75
2022/10/10 14:42:48;;;;;;;;;;;22.10;96.10;;;;;;5017593;28;20016;-75
2022/10/10 14:45:15;;;;;;;;;;;22.00;96.10;;;;;;5017415;28;20025;-75
2022/10/10 14:47:42;;;;;;;;;;;22.00;96.20;;;;;;5017559;28;20021;-75
2022/10/10 14:50:13;;;;;;;;;;;22.00;96.30;;;;;;5017590;28;20016;-75
2022/10/10 14:52:40;;;;;;;;;;;22.00;96.30;;;;;;5017062;28;19981;-75
2022/10/10 14:55:07;;;;;;;;;;;22.00;96.30;;;;;;5017170;28;20342;-75
2022/10/10 14:57:34;;;;;;;;;;;22.00;96.30;;;;;;5016979;28;20357;-75
2022/10/10 15:00:02;;;;;;;;;;;22.00;96.30;;;;;;5017242;28;20020;-76
2022/10/10 15:02:29;;;;;;;;;;;22.00;96.30;;;;;;5017190;28;19960;-76
2022/10/10 15:04:56;;;;;;;;;;;22.00;96.40;;;;;;5016735;28;19925;-76
2022/10/10 15:07:22;;;;;;;;;;;22.00;96.50;;;;;;5017097;28;20001;-76
2022/10/10 15:09:49;;;;;;;;;;;22.00;96.60;;;;;;5016741;28;19969;-75
2022/10/10 15:12:16;;;;;;;;;;;22.00;96.60;;;;;;5016992;28;19973;-75
2022/10/10 15:14:43;;;;;;;;;;;22.00;96.70;;;;;;5016814;28;20329;-75
2022/10/10 15:17:11;;;;;;;;;;;22.00;96.70;;;;;;5016875;28;19926;-75
2022/10/10 15:19:37;;;;;;;;;;;22.00;96.80;;;;;;5016545;28;20460;-75
2022/10/10 15:22:04;;;;;;;;;;;22.00;96.80;;;;;;5017028;28;20016;-75
2022/10/10 15:24:32;;;;;;;;;;;22.00;96.90;;;;;;5016792;28;20016;-75
2022/10/10 15:26:59;;;;;;;;;;;22.00;97.00;;;;;;5016602;28;19969;-75
2022/10/10 15:29:26;;;;;;;;;;;22.00;97.00;;;;;;5016318;28;20407;-75
2022/10/10 15:31:53;;;;;;;;;;;22.00;97.00;;;;;;5016551;28;19932;-75
2022/10/10 15:34:21;;;;;;;;;;;22.00;97.10;;;;;;5016429;28;19925;-75
2022/10/10 15:36:49;;;;;;;;;;;22.00;97.10;;;;;;5016132;28;19933;-75
2022/10/10 15:39:15;;;;;;;;;;;21.90;97.10;;;;;;5016439;28;19968;-75
2022/10/10 15:41:42;;;;;;;;;;;22.00;97.20;;;;;;5015271;28;19983;-75
2022/10/10 15:44:14;;;;;;;;;;;22.00;97.20;;;;;;5016316;28;19931;-75
2022/10/10 15:46:42;;;;;;;;;;;21.90;97.20;;;;;;5016192;28;19932;-75
2022/10/10 15:49:09;;;;;;;;;;;21.80;97.20;;;;;;5016255;28;20112;-75
2022/10/10 15:51:37;;;;;;;;;;;22.00;97.30;;;;;;5016182;28;19995;-75
2022/10/10 15:54:04;;;;;;;;;;;21.90;97.40;;;;;;5016086;28;19996;-77
2022/10/10 15:56:30;;;;;;;;;;;21.90;97.40;;;;;;5016378;28;19969;-75
2022/10/10 15:58:58;;;;;;;;;;;21.90;97.50;;;;;;5015858;28;20361;-75
2022/10/10 16:01:25;;;;;;;;;;;22.00;97.70;;;;;;5017162;28;19926;-74
2022/10/10 16:03:52;;;;;;;;;;;21.90;97.90;;;;;;5016973;28;19980;-74
2022/10/10 16:06:20;;;;;;;;;;;22.00;98.10;;;;;;5016910;28;20400;-75
2022/10/10 16:08:48;;;;;;;;;;;22.00;98.30;;;;;;5017364;28;19941;-76
2022/10/10 16:11:17;;;;;;;;;;;22.00;98.50;;;;;;5017137;28;19926;-76
2022/10/10 16:13:47;;;;;;;;;;;22.00;98.70;;;;;;5016898;28;19929;-76
2022/10/10 16:16:13;;;;;;;;;;;22.10;98.70;;;;;;5017072;28;20012;-75
2022/10/10 16:18:40;;;;;;;;;;;22.10;99.30;;;;;;5016675;28;20012;-75
2022/10/10 16:21:08;;;;;;;;;;;22.10;99.30;;;;;;5016988;28;20008;-75
2022/10/10 16:23:34;;;;;;;;;;;22.20;99.60;;;;;;5016799;28;20020;-76
2022/10/10 16:26:03;;;;;;;;;;;22.20;99.80;;;;;;5016554;28;19961;-76
2022/10/10 16:28:30;;;;;;;;;;;22.20;99.90;;;;;;5016852;28;19965;-76
2022/10/10 16:30:57;;;;;;;;;;;22.20;99.90;;;;;;5016744;28;19968;-76
2022/10/10 16:33:23;;;;;;;;;;;22.30;99.90;;;;;;5016004;28;20397;-76
2022/10/10 16:35:50;;;;;;;;;;;22.30;99.90;;;;;;5016504;28;20334;-77
2022/10/10 16:38:17;;;;;;;;;;;22.30;99.90;;;;;;5015253;28;19972;-77
2022/10/10 16:40:43;;;;;;;;;;;22.30;99.90;;;;;;5015283;28;19971;-77
2022/10/10 16:43:11;;;;;;;;;;;22.30;99.90;;;;;;5015195;28;19964;-77
2022/10/10 16:45:41;;;;;;;;;;;22.40;99.90;;;;;;5014820;28;20393;-77
2022/10/10 16:48:07;;;;;;;;;;;22.40;99.90;;;;;;5015158;28;20120;-77
2022/10/10 16:50:37;;;;;;;;;;;22.40;99.90;;;;;;5014815;28;19964;-77
2022/10/10 16:53:04;;;;;;;;;;;22.40;99.90;;;;;;5015037;28;19979;-77
2022/10/10 16:55:30;;;;;;;;;;;22.40;99.90;;;;;;5014585;28;20020;-77
2022/10/10 16:57:58;;;;;;;;;;;22.40;99.90;;;;;;5015003;28;19965;-77
2022/10/10 17:00:26;;;;;;;;;;;22.40;99.90;;;;;;5015407;28;19925;-77
2022/10/10 17:02:52;;;;;;;;;;;22.40;99.90;;;;;;5015070;28;20009;-77
2022/10/10 17:05:19;;;;;;;;;;;22.40;99.90;;;;;;5014911;28;19969;-76
2022/10/10 17:07:46;;;;;;;;;;;22.40;99.90;;;;;;5015160;28;20011;-77
2022/10/10 17:10:12;;;;;;;;;;;22.40;99.90;;;;;;5015513;28;20024;-77
2022/10/10 17:12:39;;;;;;;;;;;22.40;99.90;;;;;;5015495;28;20012;-77
2022/10/10 17:15:06;;;;;;;;;;;22.40;99.90;;;;;;5015260;28;20440;-77
2022/10/10 17:17:35;;;;;;;;;;;22.40;99.90;;;;;;5015723;28;20028;-76
2022/10/10 17:20:02;;;;;;;;;;;22.40;99.90;;;;;;5016078;28;20036;-77
2022/10/10 17:22:29;;;;;;;;;;;22.30;99.90;;;;;;5015284;28;20308;-77
2022/10/10 17:24:57;;;;;;;;;;;22.30;99.90;;;;;;5014596;28;20410;-77
2022/10/10 17:27:24;;;;;;;;;;;22.30;99.90;;;;;;5015638;28;19984;-76
2022/10/10 17:29:51;;;;;;;;;;;22.30;99.90;;;;;;5015815;28;19968;-75
2022/10/10 17:32:18;;;;;;;;;;;22.30;99.90;;;;;;5015542;28;20020;-76
2022/10/10 17:34:46;;;;;;;;;;;22.30;99.90;;;;;;5015895;28;19957;-76
2022/10/10 17:37:13;;;;;;;;;;;22.30;99.90;;;;;;5015440;28;20503;-75
2022/10/10 17:39:39;;;;;;;;;;;22.30;99.90;;;;;;5015873;28;20016;-76
2022/10/10 17:42:06;;;;;;;;;;;22.30;99.90;;;;;;5015729;28;19972;-76
2022/10/10 17:44:33;;;;;;;;;;;22.30;99.90;;;;;;5015505;28;19999;-76
2022/10/10 17:46:59;;;;;;;;;;;22.20;99.90;;;;;;5015640;28;19925;-75
2022/10/10 17:49:26;;;;;;;;;;;22.30;99.90;;;;;;5015621;28;19973;-75
2022/10/10 17:51:54;;;;;;;;;;;22.30;99.90;;;;;;5015640;28;20012;-75
2022/10/10 17:54:22;;;;;;;;;;;22.20;99.90;;;;;;5015729;28;19968;-75
2022/10/10 17:56:48;;;;;;;;;;;22.20;99.90;;;;;;5015869;28;19984;-75
2022/10/10 17:59:15;;;;;;;;;;;22.20;99.90;;;;;;5014788;28;20024;-76
2022/10/10 18:01:42;;;;;;;;;;;22.20;99.90;;;;;;5013699;28;19972;-76
2022/10/10 18:04:08;;;;;;;;;;;22.20;99.90;;;;;;5013949;28;20363;-75
2022/10/10 18:06:36;;;;;;;;;;;22.20;99.90;;;;;;5018257;28;20357;-75
2022/10/10 18:09:06;;;;;;;;;;;22.20;99.90;;;;;;5019634;28;20118;-75
2022/10/10 18:11:32;;;;;;;;;;;22.20;99.90;;;;;;5018611;28;20365;-76
2022/10/10 18:14:00;;;;;;;;;;;22.20;99.90;;;;;;5019337;28;20357;-76
2022/10/10 18:16:27;;;;;;;;;;;22.20;99.90;;;;;;5018606;28;19932;-75
2022/10/10 18:18:54;;;;;;;;;;;22.20;99.90;;;;;;5019096;28;20008;-75
2022/10/10 18:21:22;;;;;;;;;;;22.20;99.90;;;;;;5019281;28;19925;-76
2022/10/10 18:23:48;;;;;;;;;;;22.20;99.90;;;;;;5019911;28;19960;-78
2022/10/10 18:26:18;;;;;;;;;;;22.20;99.90;;;;;;5018627;28;20345;-77
2022/10/10 18:28:44;;;;;;;;;;;22.20;99.90;;;;;;5018985;28;19925;-76
2022/10/10 18:31:12;;;;;;;;;;;22.20;99.90;;;;;;5019445;28;20021;-77
2022/10/10 18:33:39;;;;;;;;;;;22.20;99.90;;;;;;5018652;28;19988;-77
2022/10/10 18:36:06;;;;;;;;;;;22.20;99.90;;;;;;5018609;28;19925;-77
2022/10/10 18:38:32;;;;;;;;;;;22.20;99.90;;;;;;5018663;28;20397;-77
2022/10/10 18:41:06;;;;;;;;;;;22.10;99.90;;;;;;5018588;28;19984;-78
2022/10/10 18:43:35;;;;;;;;;;;22.20;99.90;;;;;;5019296;28;20393;-78
2022/10/10 18:46:02;;;;;;;;;;;22.20;99.90;;;;;;5018404;28;20376;-77
2022/10/10 18:48:29;;;;;;;;;;;22.20;99.90;;;;;;5019752;28;19933;-78
2022/10/10 18:50:59;;;;;;;;;;;22.10;99.90;;;;;;5018399;28;20461;-77
2022/10/10 18:53:26;;;;;;;;;;;22.10;99.90;;;;;;5018314;28;19976;-76